createdAt,value
2023-05-08T00:01:21.132Z,11.73
2023-05-08T00:03:24.494Z,11.83
2023-05-08T00:05:27.375Z,12.37
2023-05-08T00:07:30.167Z,11.27
2023-05-08T00:09:32.948Z,11.30
2023-05-08T00:11:35.709Z,12.10
2023-05-08T00:13:38.474Z,11.67
2023-05-08T00:15:42.549Z,12.63
2023-05-08T00:17:45.415Z,11.00
2023-05-08T00:19:48.174Z,13.03
2023-05-08T00:21:50.997Z,13.20
2023-05-08T00:23:53.945Z,11.60
2023-05-08T00:25:56.679Z,12.30
2023-05-08T00:27:59.517Z,12.23
2023-05-08T00:30:02.293Z,12.30
2023-05-08T00:32:06.912Z,12.27
2023-05-08T00:34:09.833Z,12.83
2023-05-08T00:36:12.649Z,12.53
2023-05-08T00:38:15.666Z,12.37
2023-05-08T00:40:18.407Z,10.87
2023-05-08T00:42:21.247Z,11.23
2023-05-08T00:44:23.963Z,11.77
2023-05-08T00:46:27.336Z,11.90
2023-05-08T00:48:35.061Z,11.77
2023-05-08T00:50:37.900Z,12.17
2023-05-08T00:52:41.345Z,12.53
2023-05-08T00:54:44.684Z,13.37
2023-05-08T00:56:48.071Z,12.77
2023-05-08T00:58:52.271Z,12.73
2023-05-08T01:00:57.322Z,12.83
2023-05-08T01:03:01.681Z,13.07
2023-05-08T01:05:07.659Z,12.80
2023-05-08T01:07:11.453Z,13.53
2023-05-08T01:09:14.189Z,12.97
2023-05-08T01:11:24.646Z,12.73
2023-05-08T01:13:37.830Z,12.23
2023-05-08T01:15:48.460Z,11.77
2023-05-08T01:18:02.042Z,10.97
2023-05-08T01:20:25.527Z,12.20
2023-05-08T01:22:55.788Z,11.33
2023-05-08T01:25:30.625Z,10.97
2023-05-08T01:27:50.996Z,11.53
2023-05-08T01:30:30.483Z,11.20
2023-05-08T01:32:38.117Z,10.77
2023-05-08T01:34:47.633Z,10.67
2023-05-08T01:36:55.772Z,10.13
2023-05-08T01:39:11.058Z,11.00
2023-05-08T01:41:18.113Z,10.07
2023-05-08T01:43:27.555Z,9.80
2023-05-08T01:45:34.105Z,9.93
2023-05-08T01:47:42.459Z,9.13
2023-05-08T01:49:49.050Z,9.47
2023-05-08T01:52:00.121Z,9.60
2023-05-08T01:54:10.013Z,9.17
2023-05-08T01:56:28.223Z,9.63
2023-05-08T01:58:33.310Z,8.93
2023-05-08T02:00:36.834Z,9.60
2023-05-08T02:02:41.813Z,9.83
2023-05-08T02:04:45.807Z,9.67
2023-05-08T02:06:48.743Z,10.70
2023-05-08T02:08:54.321Z,10.40
2023-05-08T02:10:58.762Z,10.67
2023-05-08T02:13:03.485Z,10.00
2023-05-08T02:15:09.123Z,10.07
2023-05-08T02:17:13.597Z,10.40
2023-05-08T02:19:19.323Z,10.93
2023-05-08T02:21:23.489Z,10.47
2023-05-08T02:23:27.580Z,10.80
2023-05-08T02:25:32.117Z,10.73
2023-05-08T02:27:35.680Z,10.47
2023-05-08T02:29:39.006Z,10.30
2023-05-08T02:31:43.086Z,10.77
2023-05-08T02:33:46.735Z,10.77
2023-05-08T02:35:52.438Z,9.83
2023-05-08T02:37:57.229Z,11.23
2023-05-08T02:40:00.344Z,10.23
2023-05-08T02:42:03.970Z,9.80
2023-05-08T02:44:07.209Z,10.80
2023-05-08T02:46:13.549Z,14.93
2023-05-08T02:48:23.832Z,13.00
2023-05-08T02:50:36.292Z,11.87
2023-05-08T02:52:45.789Z,11.07
2023-05-08T02:54:59.414Z,9.77
2023-05-08T02:57:07.721Z,9.30
2023-05-08T02:59:19.980Z,12.20
2023-05-08T03:01:29.001Z,16.33
2023-05-08T03:03:38.003Z,18.67
2023-05-08T03:05:45.694Z,12.73
2023-05-08T03:07:53.837Z,10.23
2023-05-08T03:10:00.202Z,13.90
2023-05-08T03:12:08.953Z,11.03
2023-05-08T03:14:17.082Z,10.20
2023-05-08T03:16:25.492Z,10.77
2023-05-08T03:18:37.734Z,10.20
2023-05-08T03:20:45.536Z,10.37
2023-05-08T03:22:51.874Z,9.97
2023-05-08T03:24:55.798Z,9.67
2023-05-08T03:27:00.295Z,10.37
2023-05-08T03:29:04.513Z,9.90
2023-05-08T03:31:09.833Z,10.53
2023-05-08T03:33:14.086Z,10.23
2023-05-08T03:35:17.622Z,10.27
2023-05-08T03:37:20.925Z,10.47
2023-05-08T03:39:26.737Z,10.77
2023-05-08T03:41:30.949Z,11.20
2023-05-08T03:43:35.065Z,11.40
2023-05-08T03:45:39.296Z,10.77
2023-05-08T03:47:44.385Z,11.37
2023-05-08T03:49:48.418Z,10.43
2023-05-08T03:51:51.900Z,10.30
2023-05-08T03:53:54.697Z,9.40
2023-05-08T03:56:00.191Z,10.13
2023-05-08T03:58:16.145Z,10.37
2023-05-08T04:00:26.370Z,10.83
2023-05-08T04:02:38.787Z,10.37
2023-05-08T04:04:46.515Z,6.83
2023-05-08T04:07:00.600Z,7.20
2023-05-08T04:09:14.340Z,7.77
2023-05-08T04:11:26.795Z,7.37
2023-05-08T04:13:33.416Z,9.33
2023-05-08T04:15:40.399Z,8.17
2023-05-08T04:17:46.537Z,8.70
2023-05-08T04:19:57.003Z,7.60
2023-05-08T04:22:09.709Z,7.03
2023-05-08T04:24:16.021Z,9.40
2023-05-08T04:26:22.400Z,9.13
2023-05-08T04:28:26.996Z,10.40
2023-05-08T04:30:30.846Z,8.97
2023-05-08T04:32:35.106Z,8.37
2023-05-08T04:34:38.160Z,6.87
2023-05-08T04:36:41.440Z,7.47
2023-05-08T04:38:44.868Z,7.90
2023-05-08T04:40:48.480Z,8.13
2023-05-08T04:42:53.044Z,7.97
2023-05-08T04:44:57.327Z,9.37
2023-05-08T04:47:00.187Z,9.50
2023-05-08T04:49:02.951Z,9.47
2023-05-08T04:51:07.088Z,9.87
2023-05-08T04:53:09.846Z,10.10
2023-05-08T04:55:13.278Z,11.73
2023-05-08T04:57:16.288Z,12.20
2023-05-08T04:59:20.499Z,12.43
2023-05-08T05:01:23.387Z,12.93
2023-05-08T05:03:26.216Z,11.77
2023-05-08T05:05:29.015Z,13.43
2023-05-08T05:07:31.914Z,12.43
2023-05-08T05:09:36.983Z,12.53
2023-05-08T05:11:40.399Z,13.57
2023-05-08T05:13:43.223Z,13.33
2023-05-08T05:15:47.554Z,15.67
2023-05-08T05:17:51.411Z,14.50
2023-05-08T05:19:54.201Z,14.43
2023-05-08T05:21:57.450Z,14.53
2023-05-08T05:24:00.911Z,14.37
2023-05-08T05:26:03.756Z,13.57
2023-05-08T05:28:07.171Z,14.07
2023-05-08T05:30:10.651Z,14.57
2023-05-08T05:32:15.245Z,15.93
2023-05-08T05:34:18.503Z,14.20
2023-05-08T05:36:21.374Z,14.53
2023-05-08T05:38:24.394Z,15.53
2023-05-08T05:40:27.257Z,16.17
2023-05-08T05:42:30.164Z,14.67
2023-05-08T05:44:32.961Z,15.33
2023-05-08T05:46:35.935Z,15.43
2023-05-08T05:48:41.020Z,14.50
2023-05-08T05:50:45.462Z,14.10
2023-05-08T05:52:49.387Z,15.90
2023-05-08T05:54:52.703Z,15.20
2023-05-08T05:56:55.960Z,15.97
2023-05-08T05:58:58.688Z,15.67
2023-05-08T06:01:02.264Z,15.97
2023-05-08T06:03:06.459Z,17.40
2023-05-08T06:05:11.558Z,18.73
2023-05-08T06:07:14.676Z,17.87
2023-05-08T06:09:17.538Z,16.60
2023-05-08T06:11:20.516Z,15.20
2023-05-08T06:13:23.366Z,15.93
2023-05-08T06:15:27.033Z,15.23
2023-05-08T06:17:30.477Z,15.80
2023-05-08T06:19:33.202Z,15.50
2023-05-08T06:21:37.386Z,15.47
2023-05-08T06:23:40.106Z,14.93
2023-05-08T06:25:42.836Z,14.33
2023-05-08T06:27:45.594Z,15.13
2023-05-08T06:29:48.429Z,14.90
2023-05-08T06:31:51.133Z,14.17
2023-05-08T06:33:53.856Z,13.63
2023-05-08T06:35:56.841Z,13.40
2023-05-08T06:38:01.405Z,13.23
2023-05-08T06:40:12.057Z,13.10
2023-05-08T06:42:15.589Z,12.23
2023-05-08T06:44:21.593Z,12.67
2023-05-08T06:46:24.647Z,12.50
2023-05-08T06:48:29.091Z,12.27
2023-05-08T06:50:32.203Z,12.30
2023-05-08T06:52:34.965Z,12.87
2023-05-08T06:54:39.149Z,12.20
2023-05-08T06:56:41.901Z,11.50
2023-05-08T06:58:48.431Z,11.80
2023-05-08T07:01:00.806Z,11.27
2023-05-08T07:03:03.997Z,11.97
2023-05-08T07:05:07.957Z,11.23
2023-05-08T07:07:11.590Z,11.83
2023-05-08T07:09:14.473Z,11.53
2023-05-08T07:11:18.568Z,10.80
2023-05-08T07:13:22.088Z,11.00
2023-05-08T07:15:26.345Z,11.20
2023-05-08T07:17:30.780Z,11.10
2023-05-08T07:19:33.938Z,11.13
2023-05-08T07:21:36.823Z,11.43
2023-05-08T07:23:39.532Z,10.77
2023-05-08T07:25:42.232Z,10.67
2023-05-08T07:27:46.387Z,9.83
2023-05-08T07:29:49.068Z,9.87
2023-05-08T07:31:52.166Z,9.87
2023-05-08T07:33:54.982Z,9.40
2023-05-08T07:35:58.171Z,9.97
2023-05-08T07:38:00.953Z,9.27
2023-05-08T07:40:03.832Z,9.63
2023-05-08T07:42:06.762Z,9.53
2023-05-08T07:44:10.857Z,10.43
2023-05-08T07:46:18.489Z,11.80
2023-05-08T07:48:21.276Z,10.90
2023-05-08T07:50:25.602Z,11.67
2023-05-08T07:52:28.520Z,12.93
2023-05-08T07:54:31.277Z,12.30
2023-05-08T07:56:34.122Z,10.90
2023-05-08T07:58:36.900Z,11.20
2023-05-08T08:00:41.148Z,10.70
2023-05-08T08:02:44.618Z,10.27
2023-05-08T08:04:47.645Z,10.07
2023-05-08T08:06:50.608Z,9.40
2023-05-08T08:08:53.312Z,11.07
2023-05-08T08:10:56.049Z,11.37
2023-05-08T08:13:01.527Z,10.77
2023-05-08T08:15:04.717Z,11.13
2023-05-08T08:17:08.932Z,10.57
2023-05-08T08:19:11.736Z,10.90
2023-05-08T08:21:14.502Z,11.27
2023-05-08T08:23:17.294Z,10.43
2023-05-08T08:25:20.879Z,10.83
2023-05-08T08:27:24.088Z,10.10
2023-05-08T08:29:27.012Z,10.83
2023-05-08T08:31:29.770Z,11.03
2023-05-08T08:33:33.908Z,9.67
2023-05-08T08:35:36.709Z,10.37
2023-05-08T08:37:39.515Z,10.80
2023-05-08T08:39:42.267Z,10.33
2023-05-08T08:41:45.048Z,10.30
2023-05-08T08:43:47.829Z,9.73
2023-05-08T08:45:50.600Z,11.17
2023-05-08T08:47:53.897Z,10.07
2023-05-08T08:50:01.752Z,9.67
2023-05-08T08:52:11.923Z,10.23
2023-05-08T08:54:18.450Z,10.73
2023-05-08T08:56:24.636Z,11.17
2023-05-08T08:58:32.631Z,10.90
2023-05-08T09:00:38.352Z,11.13
2023-05-08T09:02:41.315Z,6.47
2023-05-08T09:04:44.723Z,5.47
2023-05-08T09:06:50.760Z,5.80
2023-05-08T09:08:56.297Z,4.90
2023-05-08T09:10:59.386Z,5.17
2023-05-08T09:13:02.209Z,4.90
2023-05-08T09:15:06.773Z,5.03
2023-05-08T09:17:10.446Z,4.87
2023-05-08T09:19:15.863Z,4.33
2023-05-08T09:21:22.159Z,4.80
2023-05-08T09:23:26.358Z,4.07
2023-05-08T09:25:42.547Z,4.80
2023-05-08T09:27:47.953Z,4.80
2023-05-08T09:30:02.908Z,5.60
2023-05-08T09:32:06.165Z,5.70
2023-05-08T09:34:09.566Z,6.00
2023-05-08T09:36:26.682Z,5.27
2023-05-08T09:38:38.189Z,7.27
2023-05-08T09:40:40.946Z,6.50
2023-05-08T09:42:43.900Z,10.03
2023-05-08T09:44:49.403Z,8.90
2023-05-08T09:46:52.172Z,8.30
2023-05-08T09:48:56.436Z,8.27
2023-05-08T09:51:06.806Z,8.10
2023-05-08T09:53:09.557Z,8.73
2023-05-08T09:55:13.775Z,9.97
2023-05-08T09:57:17.008Z,9.43
2023-05-08T09:59:27.842Z,9.27
2023-05-08T10:01:33.004Z,10.40
2023-05-08T10:03:48.076Z,10.70
2023-05-08T10:05:50.865Z,10.70
2023-05-08T10:07:53.755Z,11.27
2023-05-08T10:10:01.486Z,11.37
2023-05-08T10:12:06.909Z,10.60
2023-05-08T10:14:10.112Z,10.80
2023-05-08T10:16:17.105Z,11.10
2023-05-08T10:18:23.117Z,10.17
2023-05-08T10:20:29.500Z,11.10
2023-05-08T10:22:37.343Z,10.60
2023-05-08T10:24:42.039Z,10.67
2023-05-08T10:27:05.549Z,10.43
2023-05-08T10:29:18.097Z,10.17
2023-05-08T10:31:25.692Z,10.53
2023-05-08T10:33:32.405Z,10.10
2023-05-08T10:35:35.375Z,11.20
2023-05-08T10:37:39.489Z,11.20
2023-05-08T10:39:43.907Z,11.23
2023-05-08T10:41:48.039Z,10.20
2023-05-08T10:43:51.701Z,11.00
2023-05-08T10:45:57.472Z,11.13
2023-05-08T10:48:06.135Z,12.33
2023-05-08T10:50:20.236Z,8.43
2023-05-08T10:52:31.059Z,7.93
2023-05-08T10:54:46.251Z,6.90
2023-05-08T10:56:50.155Z,7.57
2023-05-08T10:58:57.079Z,7.20
2023-05-08T11:01:15.109Z,8.13
2023-05-08T11:03:30.453Z,7.20
2023-05-08T11:05:47.372Z,7.23
2023-05-08T11:07:57.419Z,7.20
2023-05-08T11:10:08.794Z,8.77
2023-05-08T11:12:23.920Z,7.77
2023-05-08T11:14:27.932Z,7.40
2023-05-08T11:17:02.899Z,7.27
2023-05-08T11:19:26.100Z,7.20
2023-05-08T11:21:28.740Z,6.43
2023-05-08T11:23:32.235Z,7.53
2023-05-08T11:25:43.428Z,7.33
2023-05-08T11:28:13.837Z,6.53
2023-05-08T11:30:20.777Z,6.17
2023-05-08T11:32:26.214Z,6.27
2023-05-08T11:34:49.849Z,6.13
2023-05-08T11:37:02.784Z,7.10
2023-05-08T11:39:12.624Z,7.10
2023-05-08T11:41:22.586Z,7.00
2023-05-08T11:43:27.142Z,6.67
2023-05-08T11:45:30.724Z,7.80
2023-05-08T11:47:39.147Z,6.30
2023-05-08T11:49:42.038Z,6.40
2023-05-08T11:51:48.174Z,6.57
2023-05-08T11:53:51.510Z,6.87
2023-05-08T11:55:54.792Z,6.67
2023-05-08T11:57:57.605Z,5.07
2023-05-08T12:00:05.046Z,5.33
2023-05-08T12:02:11.521Z,4.77
2023-05-08T12:04:14.580Z,4.70
2023-05-08T12:06:20.000Z,3.77
2023-05-08T12:08:24.197Z,3.50
2023-05-08T12:10:26.980Z,3.30
2023-05-08T12:12:39.262Z,4.13
2023-05-08T12:14:42.027Z,3.03
2023-05-08T12:16:44.819Z,2.63
2023-05-08T12:18:50.321Z,2.47
2023-05-08T12:20:54.087Z,2.90
2023-05-08T12:22:56.922Z,3.50
2023-05-08T12:25:01.030Z,3.17
2023-05-08T12:27:04.765Z,2.77
2023-05-08T12:29:08.628Z,2.43
2023-05-08T12:31:12.314Z,2.30
2023-05-08T12:33:16.132Z,2.57
2023-05-08T12:35:19.096Z,2.90
2023-05-08T12:37:27.684Z,3.37
2023-05-08T12:39:35.609Z,2.03
2023-05-08T12:41:47.648Z,2.43
2023-05-08T12:43:50.381Z,2.90
2023-05-08T12:45:53.412Z,2.70
2023-05-08T12:48:00.374Z,2.33
2023-05-08T12:50:03.224Z,2.70
2023-05-08T12:52:07.539Z,1.83
2023-05-08T12:54:10.309Z,5.90
2023-05-08T12:56:13.061Z,2.80
2023-05-08T12:58:17.944Z,2.40
2023-05-08T13:00:21.156Z,3.00
2023-05-08T13:02:26.360Z,2.50
2023-05-08T13:04:30.395Z,2.60
2023-05-08T13:06:33.286Z,2.10
2023-05-08T13:08:37.953Z,2.30
2023-05-08T13:10:49.098Z,2.10
2023-05-08T13:12:52.252Z,2.60
2023-05-08T13:14:56.500Z,2.33
2023-05-08T13:16:59.780Z,2.83
2023-05-08T13:19:02.668Z,2.60
2023-05-08T13:21:05.791Z,6.57
2023-05-08T13:23:08.564Z,2.43
2023-05-08T13:25:11.446Z,2.77
2023-05-08T13:27:14.703Z,2.33
2023-05-08T13:29:17.559Z,2.53
2023-05-08T13:31:21.659Z,2.60
2023-05-08T13:33:24.461Z,2.50
2023-05-08T13:35:28.398Z,2.30
2023-05-08T13:37:31.452Z,2.30
2023-05-08T13:39:37.757Z,2.47
2023-05-08T13:41:40.491Z,3.07
2023-05-08T13:43:43.445Z,3.00
2023-05-08T13:45:46.196Z,4.20
2023-05-08T13:47:51.290Z,3.13
2023-05-08T13:49:54.170Z,2.80
2023-05-08T13:51:57.317Z,2.90
2023-05-08T13:54:00.209Z,2.73
2023-05-08T13:56:03.098Z,5.43
2023-05-08T13:58:05.918Z,6.70
2023-05-08T14:00:10.265Z,13.43
2023-05-08T14:02:13.287Z,4.30
2023-05-08T14:04:19.131Z,4.87
2023-05-08T14:06:21.909Z,3.17
2023-05-08T14:08:24.726Z,3.53
2023-05-08T14:10:27.494Z,3.10
2023-05-08T14:12:30.389Z,4.97
2023-05-08T14:14:34.498Z,9.23
2023-05-08T14:16:37.612Z,5.90
2023-05-08T14:18:40.393Z,7.57
2023-05-08T14:20:49.001Z,3.40
2023-05-08T14:22:54.428Z,3.27
2023-05-08T14:24:57.113Z,4.30
2023-05-08T14:27:01.931Z,3.40
2023-05-08T14:29:04.935Z,3.80
2023-05-08T14:31:07.820Z,3.77
2023-05-08T14:33:10.642Z,4.23
2023-05-08T14:35:14.122Z,4.30
2023-05-08T14:37:18.859Z,4.23
2023-05-08T14:39:21.640Z,4.63
2023-05-08T14:41:28.318Z,5.60
2023-05-08T14:43:31.020Z,7.47
2023-05-08T14:45:33.747Z,4.37
2023-05-08T14:47:36.550Z,4.10
2023-05-08T14:49:39.231Z,4.30
2023-05-08T14:51:41.898Z,4.53
2023-05-08T14:53:46.067Z,4.60
2023-05-08T14:55:48.896Z,5.10
2023-05-08T14:57:52.004Z,4.50
2023-05-08T14:59:56.160Z,4.20
2023-05-08T15:01:58.908Z,4.27
2023-05-08T15:04:01.796Z,4.23
2023-05-08T15:06:05.641Z,4.77
2023-05-08T15:08:09.591Z,5.23
2023-05-08T15:10:14.474Z,5.00
2023-05-08T15:12:17.194Z,6.07
2023-05-08T15:14:19.895Z,6.23
2023-05-08T15:16:22.614Z,6.30
2023-05-08T15:18:28.380Z,6.43
2023-05-08T15:20:31.149Z,9.83
2023-05-08T15:22:33.905Z,6.73
2023-05-08T15:24:36.713Z,7.70
2023-05-08T15:26:40.776Z,10.67
2023-05-08T15:28:43.498Z,8.63
2023-05-08T15:30:46.818Z,11.57
2023-05-08T15:32:49.714Z,11.23
2023-05-08T15:34:52.560Z,7.17
2023-05-08T15:36:55.976Z,10.50
2023-05-08T15:38:58.804Z,7.67
2023-05-08T15:41:01.579Z,7.10
2023-05-08T15:43:05.682Z,6.67
2023-05-08T15:45:09.578Z,6.70
2023-05-08T15:47:12.284Z,7.13
2023-05-08T15:49:14.999Z,6.50
2023-05-08T15:51:17.846Z,6.73
2023-05-08T15:53:20.568Z,6.60
2023-05-08T15:55:23.579Z,6.67
2023-05-08T15:57:27.071Z,6.53
2023-05-08T15:59:31.198Z,7.17
2023-05-08T16:01:34.008Z,10.33
2023-05-08T16:03:36.959Z,10.50
2023-05-08T16:05:40.086Z,11.60
2023-05-08T16:07:43.745Z,11.63
2023-05-08T16:09:46.602Z,10.63
2023-05-08T16:11:49.404Z,10.03
2023-05-08T16:13:52.272Z,11.27
2023-05-08T16:15:56.402Z,11.70
2023-05-08T16:17:59.227Z,10.23
2023-05-08T16:20:03.762Z,11.60
2023-05-08T16:22:06.901Z,11.53
2023-05-08T16:24:09.758Z,12.20
2023-05-08T16:26:13.971Z,13.20
2023-05-08T16:28:16.690Z,19.20
2023-05-08T16:30:19.768Z,13.10
2023-05-08T16:32:23.838Z,13.33
2023-05-08T16:34:26.537Z,13.53
2023-05-08T16:36:29.290Z,14.20
2023-05-08T16:38:32.057Z,15.60
2023-05-08T16:40:34.877Z,13.37
2023-05-08T16:42:37.983Z,15.47
2023-05-08T16:44:40.700Z,16.80
2023-05-08T16:46:43.494Z,12.93
2023-05-08T16:48:48.311Z,13.93
2023-05-08T16:50:51.295Z,11.50
2023-05-08T16:52:54.050Z,11.03
2023-05-08T16:54:56.732Z,10.37
2023-05-08T16:56:59.533Z,10.60
2023-05-08T16:59:05.991Z,10.53
2023-05-08T17:01:08.726Z,10.70
2023-05-08T17:03:11.549Z,10.20
2023-05-08T17:05:15.755Z,10.73
2023-05-08T17:07:19.121Z,10.03
2023-05-08T17:09:21.836Z,9.93
2023-05-08T17:11:24.517Z,9.57
2023-05-08T17:13:27.306Z,10.33
2023-05-08T17:15:30.389Z,10.73
2023-05-08T17:17:33.144Z,12.03
2023-05-08T17:19:36.209Z,11.27
2023-05-08T17:21:40.257Z,10.60
2023-05-08T17:23:42.938Z,12.57
2023-05-08T17:25:45.612Z,11.57
2023-05-08T17:27:48.272Z,11.83
2023-05-08T17:29:50.995Z,11.90
2023-05-08T17:31:53.703Z,12.50
2023-05-08T17:33:56.396Z,12.17
2023-05-08T17:35:59.064Z,21.00
2023-05-08T17:38:03.046Z,14.70
2023-05-08T17:40:06.758Z,10.73
2023-05-08T17:42:09.759Z,11.10
2023-05-08T17:44:12.563Z,8.97
2023-05-08T17:46:15.485Z,7.13
2023-05-08T17:48:18.382Z,5.33
2023-05-08T17:50:21.320Z,5.47
2023-05-08T17:52:23.992Z,4.90
2023-05-08T17:54:28.087Z,5.30
2023-05-08T17:56:31.872Z,5.00
2023-05-08T17:58:34.722Z,5.00
2023-05-08T18:00:37.624Z,4.80
2023-05-08T18:02:40.487Z,4.93
2023-05-08T18:04:43.235Z,5.03
2023-05-08T18:06:47.712Z,4.57
2023-05-08T18:08:50.489Z,4.20
2023-05-08T18:10:54.554Z,4.00
2023-05-08T18:12:57.317Z,3.77
2023-05-08T18:15:00.846Z,3.60
2023-05-08T18:17:03.716Z,4.60
2023-05-08T18:19:06.481Z,6.77
2023-05-08T18:21:09.328Z,4.67
2023-05-08T18:23:12.090Z,3.33
2023-05-08T18:25:14.856Z,3.70
2023-05-08T18:27:18.895Z,3.40
2023-05-08T18:29:21.736Z,3.97
2023-05-08T18:31:24.502Z,4.20
2023-05-08T18:33:27.220Z,3.60
2023-05-08T18:35:29.961Z,3.93
2023-05-08T18:37:32.729Z,3.60
2023-05-08T18:39:35.454Z,6.83
2023-05-08T18:41:38.245Z,5.90
2023-05-08T18:43:42.375Z,5.03
2023-05-08T18:45:45.145Z,30.63
2023-05-08T18:47:48.097Z,12.00
2023-05-08T18:49:51.761Z,15.33
2023-05-08T18:51:54.430Z,9.90
2023-05-08T18:53:57.292Z,5.63
2023-05-08T18:56:03.008Z,4.97
2023-05-08T18:58:06.419Z,5.37
2023-05-08T19:00:11.827Z,5.50
2023-05-08T19:02:14.618Z,4.10
2023-05-08T19:04:17.525Z,4.20
2023-05-08T19:06:20.369Z,4.30
2023-05-08T19:08:23.198Z,4.60
2023-05-08T19:10:25.920Z,4.93
2023-05-08T19:12:28.739Z,4.97
2023-05-08T19:14:31.491Z,5.50
2023-05-08T19:16:35.600Z,6.50
2023-05-08T19:18:38.319Z,6.40
2023-05-08T19:20:41.010Z,7.70
2023-05-08T19:22:43.685Z,7.63
2023-05-08T19:24:46.472Z,7.33
2023-05-08T19:26:49.117Z,7.20
2023-05-08T19:28:51.776Z,9.50
2023-05-08T19:30:54.444Z,9.57
2023-05-08T19:32:58.531Z,11.77
2023-05-08T19:35:02.580Z,11.73
2023-05-08T19:37:06.269Z,14.10
2023-05-08T19:39:09.159Z,9.97
2023-05-08T19:41:12.601Z,10.40
2023-05-08T19:43:15.601Z,9.77
2023-05-08T19:45:18.349Z,12.20
2023-05-08T19:47:21.200Z,14.03
2023-05-08T19:49:25.359Z,21.27
2023-05-08T19:51:28.162Z,25.83
2023-05-08T19:53:30.820Z,20.47
2023-05-08T19:55:33.471Z,33.10
2023-05-08T19:57:36.238Z,20.97
2023-05-08T19:59:39.030Z,18.33
2023-05-08T20:01:43.441Z,19.30
2023-05-08T20:03:46.479Z,18.63
2023-05-08T20:05:51.781Z,16.13
2023-05-08T20:07:55.625Z,28.50
2023-05-08T20:09:58.422Z,20.27
2023-05-08T20:12:01.257Z,16.27
2023-05-08T20:14:04.076Z,16.63
2023-05-08T20:16:07.294Z,14.57
2023-05-08T20:18:10.260Z,14.40
2023-05-08T20:20:13.954Z,15.00
2023-05-08T20:22:18.212Z,15.10
2023-05-08T20:24:20.907Z,14.57
2023-05-08T20:26:23.693Z,15.07
2023-05-08T20:28:26.456Z,15.57
2023-05-08T20:30:29.211Z,15.40
2023-05-08T20:32:32.007Z,14.07
2023-05-08T20:34:34.781Z,15.60
2023-05-08T20:36:37.559Z,15.17
2023-05-08T20:38:41.638Z,14.77
2023-05-08T20:40:44.352Z,15.57
2023-05-08T20:42:47.112Z,14.97
2023-05-08T20:44:49.841Z,15.33
2023-05-08T20:46:52.582Z,16.80
2023-05-08T20:48:55.314Z,16.37
2023-05-08T20:50:57.992Z,94.40
2023-05-08T20:53:00.702Z,34.60
2023-05-08T20:55:05.478Z,25.03
2023-05-08T20:57:08.233Z,17.87
2023-05-08T20:59:11.411Z,19.20
2023-05-08T21:01:14.180Z,16.63
2023-05-08T21:03:16.952Z,17.70
2023-05-08T21:05:19.844Z,15.27
2023-05-08T21:07:22.573Z,16.27
2023-05-08T21:09:25.509Z,16.03
2023-05-08T21:11:29.830Z,17.07
2023-05-08T21:13:32.532Z,18.27
2023-05-08T21:15:35.288Z,17.97
2023-05-08T21:17:38.050Z,18.83
2023-05-08T21:19:40.864Z,19.47
2023-05-08T21:21:43.606Z,17.00
2023-05-08T21:23:46.517Z,18.73
2023-05-08T21:25:50.655Z,15.43
2023-05-08T21:27:55.473Z,15.83
2023-05-08T21:29:58.379Z,16.50
2023-05-08T21:32:01.160Z,19.27
2023-05-08T21:34:04.199Z,17.60
2023-05-08T21:36:07.290Z,16.57
2023-05-08T21:38:11.996Z,18.90
2023-05-08T21:40:14.887Z,17.47
2023-05-08T21:42:17.605Z,17.93
2023-05-08T21:44:21.613Z,15.10
2023-05-08T21:46:24.332Z,14.77
2023-05-08T21:48:27.122Z,15.90
2023-05-08T21:50:29.869Z,17.83
2023-05-08T21:52:32.618Z,17.90
2023-05-08T21:54:35.405Z,18.10
2023-05-08T21:56:38.258Z,19.27
2023-05-08T21:58:41.064Z,21.07
2023-05-08T22:00:45.163Z,22.77
2023-05-08T22:02:48.229Z,21.17
2023-05-08T22:04:51.109Z,25.53
2023-05-08T22:06:53.839Z,25.60
2023-05-08T22:08:56.639Z,21.87
2023-05-08T22:10:59.340Z,23.30
2023-05-08T22:13:02.166Z,23.33
2023-05-08T22:15:09.458Z,18.03
2023-05-08T22:17:19.086Z,16.57
2023-05-08T22:19:21.796Z,19.60
2023-05-08T22:21:24.522Z,18.60
2023-05-08T22:23:27.200Z,15.53
2023-05-08T22:25:29.974Z,15.10
2023-05-08T22:27:32.705Z,14.83
2023-05-08T22:29:35.423Z,14.53
2023-05-08T22:31:38.160Z,14.83
2023-05-08T22:33:42.199Z,15.17
2023-05-08T22:35:44.832Z,15.23
2023-05-08T22:37:47.525Z,15.63
2023-05-08T22:39:50.509Z,15.63
2023-05-08T22:41:53.218Z,25.77
2023-05-08T22:43:56.969Z,24.30
2023-05-08T22:46:00.478Z,17.50
2023-05-08T22:48:04.425Z,16.97
2023-05-08T22:50:11.574Z,21.60
2023-05-08T22:52:14.206Z,21.80
2023-05-08T22:54:16.911Z,30.80
2023-05-08T22:56:19.528Z,39.33
2023-05-08T22:58:22.235Z,16.80
2023-05-08T23:00:25.076Z,21.53
2023-05-08T23:02:32.784Z,22.67
2023-05-08T23:04:35.611Z,26.60
2023-05-08T23:06:39.702Z,25.27
2023-05-08T23:08:42.381Z,25.90
2023-05-08T23:10:45.316Z,19.30
2023-05-08T23:12:48.019Z,17.30
2023-05-08T23:14:50.734Z,16.33
2023-05-08T23:16:53.406Z,13.67
2023-05-08T23:18:56.350Z,10.77
2023-05-08T23:20:59.125Z,9.80
2023-05-08T23:23:03.110Z,10.10
2023-05-08T23:25:06.896Z,9.67
2023-05-08T23:27:09.569Z,9.67
2023-05-08T23:29:12.139Z,9.10
2023-05-08T23:31:14.865Z,8.33
2023-05-08T23:33:18.965Z,8.53
2023-05-08T23:35:21.698Z,9.20
2023-05-08T23:37:24.646Z,10.03
2023-05-08T23:39:28.770Z,10.93
2023-05-08T23:41:32.310Z,14.93
2023-05-08T23:43:35.003Z,14.20
2023-05-08T23:45:37.736Z,14.70
2023-05-08T23:47:40.548Z,15.67
2023-05-08T23:49:43.301Z,15.27
2023-05-08T23:51:46.227Z,14.50
2023-05-08T23:53:49.991Z,13.80
2023-05-08T23:55:54.040Z,14.83
2023-05-08T23:57:57.506Z,13.37
